createdAt,value
2023-02-06T00:00:26.288Z,27.30
2023-02-06T00:01:26.261Z,28.80
2023-02-06T00:02:27.291Z,30.50
2023-02-06T00:03:26.286Z,28.60
2023-02-06T00:04:26.254Z,28.60
2023-02-06T00:05:26.282Z,31.40
2023-02-06T00:06:26.235Z,33.80
2023-02-06T00:07:26.240Z,33.70
2023-02-06T00:08:26.250Z,36.80
2023-02-06T00:09:26.214Z,42.80
2023-02-06T00:10:26.203Z,41.30
2023-02-06T00:11:26.199Z,36.20
2023-02-06T00:12:26.193Z,42.00
2023-02-06T00:13:26.203Z,42.60
2023-02-06T00:14:26.168Z,39.00
2023-02-06T00:15:26.223Z,33.70
2023-02-06T00:16:26.157Z,33.50
2023-02-06T00:17:26.149Z,35.10
2023-02-06T00:18:26.169Z,38.10
2023-02-06T00:19:26.128Z,37.00
2023-02-06T00:20:26.123Z,34.40
2023-02-06T00:21:26.173Z,35.00
2023-02-06T00:22:26.106Z,33.20
2023-02-06T00:23:26.136Z,32.70
2023-02-06T00:24:26.089Z,33.10
2023-02-06T00:25:26.087Z,34.00
2023-02-06T00:26:26.081Z,31.10
2023-02-06T00:27:26.068Z,32.70
2023-02-06T00:28:26.067Z,34.90
2023-02-06T00:29:26.075Z,32.50
2023-02-06T00:30:26.066Z,32.20
2023-02-06T00:31:26.060Z,35.30
2023-02-06T00:32:26.093Z,35.20
2023-02-06T00:33:26.019Z,38.70
2023-02-06T00:34:26.037Z,34.60
2023-02-06T00:35:26.006Z,36.80
2023-02-06T00:36:27.004Z,37.00
2023-02-06T00:37:25.996Z,36.30
2023-02-06T00:38:25.991Z,36.00
2023-02-06T00:39:26.006Z,36.80
2023-02-06T00:40:25.970Z,36.90
2023-02-06T00:41:25.967Z,41.20
2023-02-06T00:42:25.954Z,39.80
2023-02-06T00:43:25.949Z,39.70
2023-02-06T00:44:25.965Z,35.10
2023-02-06T00:45:25.931Z,38.10
2023-02-06T00:46:25.951Z,38.00
2023-02-06T00:47:25.922Z,36.00
2023-02-06T00:48:25.922Z,39.00
2023-02-06T00:49:25.929Z,44.40
2023-02-06T00:50:25.894Z,44.50
2023-02-06T00:51:25.884Z,38.20
2023-02-06T00:52:25.881Z,41.50
2023-02-06T00:53:25.871Z,37.50
2023-02-06T00:54:25.886Z,40.90
2023-02-06T00:55:25.850Z,39.60
2023-02-06T00:56:25.849Z,36.30
2023-02-06T00:57:25.848Z,38.40
2023-02-06T00:58:25.837Z,38.30
2023-02-06T00:59:25.844Z,40.20
2023-02-06T01:00:25.814Z,38.80
2023-02-06T01:01:25.812Z,40.00
2023-02-06T01:02:25.827Z,34.60
2023-02-06T01:03:25.788Z,37.10
2023-02-06T01:04:25.794Z,33.00
2023-02-06T01:05:26.776Z,34.30
2023-02-06T01:06:25.780Z,40.30
2023-02-06T01:07:25.766Z,39.10
2023-02-06T01:08:25.749Z,37.70
2023-02-06T01:09:25.771Z,37.90
2023-02-06T01:10:25.722Z,36.90
2023-02-06T01:11:26.725Z,40.20
2023-02-06T01:12:25.718Z,39.40
2023-02-06T01:13:25.705Z,35.20
2023-02-06T01:14:25.725Z,39.60
2023-02-06T01:15:25.698Z,36.10
2023-02-06T01:16:25.748Z,34.60
2023-02-06T01:17:25.679Z,38.00
2023-02-06T01:18:25.672Z,39.50
2023-02-06T01:19:25.687Z,39.00
2023-02-06T01:20:25.653Z,38.90
2023-02-06T01:21:25.652Z,41.80
2023-02-06T01:22:26.639Z,41.10
2023-02-06T01:23:25.631Z,45.60
2023-02-06T01:24:25.647Z,45.50
2023-02-06T01:25:25.614Z,42.60
2023-02-06T01:26:25.604Z,44.80
2023-02-06T01:27:25.594Z,41.60
2023-02-06T01:28:25.594Z,44.60
2023-02-06T01:29:25.611Z,42.90
2023-02-06T01:30:25.630Z,38.90
2023-02-06T01:31:25.626Z,44.20
2023-02-06T01:32:25.566Z,45.10
2023-02-06T01:33:25.557Z,48.40
2023-02-06T01:34:25.578Z,40.60
2023-02-06T01:35:25.544Z,44.00
2023-02-06T01:36:25.537Z,41.50
2023-02-06T01:37:25.534Z,41.20
2023-02-06T01:38:25.519Z,41.00
2023-02-06T01:39:25.534Z,43.90
2023-02-06T01:40:25.509Z,38.90
2023-02-06T01:41:25.490Z,41.80
2023-02-06T01:42:25.497Z,41.80
2023-02-06T01:43:25.493Z,46.90
2023-02-06T01:44:25.495Z,41.20
2023-02-06T01:45:25.468Z,44.00
2023-02-06T01:46:25.489Z,45.10
2023-02-06T01:47:25.447Z,38.90
2023-02-06T01:48:25.447Z,40.50
2023-02-06T01:49:25.456Z,40.80
2023-02-06T01:50:25.433Z,38.70
2023-02-06T01:51:25.418Z,39.90
2023-02-06T01:52:25.407Z,39.50
2023-02-06T01:53:25.400Z,36.60
2023-02-06T01:54:25.432Z,40.90
2023-02-06T01:55:25.384Z,43.00
2023-02-06T01:56:25.376Z,40.80
2023-02-06T01:57:25.374Z,41.60
2023-02-06T01:58:25.362Z,34.90
2023-02-06T01:59:25.376Z,41.00
2023-02-06T02:00:25.392Z,49.10
2023-02-06T02:01:25.340Z,39.70
2023-02-06T02:02:25.335Z,40.30
2023-02-06T02:03:25.320Z,39.90
2023-02-06T02:04:25.338Z,46.10
2023-02-06T02:05:25.302Z,41.20
2023-02-06T02:06:25.303Z,43.60
2023-02-06T02:07:25.286Z,46.20
2023-02-06T02:08:25.277Z,45.60
2023-02-06T02:09:25.296Z,46.20
2023-02-06T02:10:25.262Z,49.00
2023-02-06T02:11:25.249Z,48.30
2023-02-06T02:12:26.252Z,43.30
2023-02-06T02:13:25.254Z,49.50
2023-02-06T02:14:25.260Z,44.90
2023-02-06T02:15:25.228Z,43.50
2023-02-06T02:16:25.290Z,45.60
2023-02-06T02:17:25.214Z,46.40
2023-02-06T02:18:25.203Z,46.00
2023-02-06T02:19:25.232Z,43.80
2023-02-06T02:20:25.195Z,41.50
2023-02-06T02:21:25.178Z,42.80
2023-02-06T02:22:25.170Z,41.80
2023-02-06T02:23:25.159Z,44.80
2023-02-06T02:24:25.160Z,45.30
2023-02-06T02:25:25.181Z,44.40
2023-02-06T02:26:25.142Z,44.10
2023-02-06T02:27:25.128Z,43.90
2023-02-06T02:28:25.141Z,39.60
2023-02-06T02:29:25.125Z,42.10
2023-02-06T02:30:25.169Z,40.80
2023-02-06T02:31:25.129Z,41.80
2023-02-06T02:32:25.096Z,39.80
2023-02-06T02:33:25.088Z,44.40
2023-02-06T02:34:25.076Z,46.50
2023-02-06T02:35:25.103Z,38.80
2023-02-06T02:36:25.064Z,42.30
2023-02-06T02:37:25.055Z,41.80
2023-02-06T02:38:25.049Z,41.40
2023-02-06T02:39:25.152Z,43.80
2023-02-06T02:40:25.059Z,45.70
2023-02-06T02:41:25.026Z,43.00
2023-02-06T02:42:25.024Z,48.00
2023-02-06T02:43:25.018Z,43.30
2023-02-06T02:44:24.999Z,39.50
2023-02-06T02:45:25.083Z,43.10
2023-02-06T02:46:24.991Z,46.50
2023-02-06T02:47:24.977Z,44.60
2023-02-06T02:48:24.968Z,46.70
2023-02-06T02:49:24.956Z,49.40
2023-02-06T02:50:24.974Z,47.10
2023-02-06T02:51:24.963Z,41.70
2023-02-06T02:52:24.936Z,44.50
2023-02-06T02:53:24.926Z,39.60
2023-02-06T02:54:24.923Z,41.30
2023-02-06T02:55:24.951Z,43.50
2023-02-06T02:56:24.904Z,44.70
2023-02-06T02:57:24.896Z,50.50
2023-02-06T02:58:24.919Z,45.20
2023-02-06T02:59:24.874Z,42.30
2023-02-06T03:00:24.891Z,41.20
2023-02-06T03:01:24.858Z,41.20
2023-02-06T03:02:24.940Z,45.60
2023-02-06T03:03:24.843Z,43.70
2023-02-06T03:04:24.843Z,46.00
2023-02-06T03:05:24.858Z,46.20
2023-02-06T03:06:24.834Z,44.60
2023-02-06T03:07:24.819Z,44.00
2023-02-06T03:08:24.805Z,44.50
2023-02-06T03:09:24.796Z,45.30
2023-02-06T03:10:24.803Z,41.20
2023-02-06T03:11:24.877Z,39.40
2023-02-06T03:12:24.788Z,47.20
2023-02-06T03:13:24.764Z,52.90
2023-02-06T03:14:24.760Z,50.30
2023-02-06T03:15:24.776Z,51.70
2023-02-06T03:16:24.764Z,53.20
2023-02-06T03:17:24.729Z,53.90
2023-02-06T03:18:24.731Z,53.70
2023-02-06T03:19:24.720Z,54.90
2023-02-06T03:20:24.734Z,54.30
2023-02-06T03:21:24.704Z,48.30
2023-02-06T03:22:24.698Z,49.40
2023-02-06T03:23:24.693Z,53.00
2023-02-06T03:24:24.685Z,53.00
2023-02-06T03:25:24.704Z,49.70
2023-02-06T03:26:24.662Z,52.20
2023-02-06T03:27:24.656Z,54.00
2023-02-06T03:28:24.643Z,48.00
2023-02-06T03:29:24.645Z,50.60
2023-02-06T03:30:24.655Z,50.90
2023-02-06T03:31:24.667Z,47.20
2023-02-06T03:32:24.632Z,55.50
2023-02-06T03:33:24.608Z,47.30
2023-02-06T03:34:24.598Z,45.70
2023-02-06T03:35:24.625Z,52.80
2023-02-06T03:36:24.579Z,48.10
2023-02-06T03:37:24.573Z,50.40
2023-02-06T03:38:24.577Z,56.80
2023-02-06T03:39:24.555Z,48.60
2023-02-06T03:40:24.553Z,50.10
2023-02-06T03:41:24.572Z,45.00
2023-02-06T03:42:24.544Z,47.90
2023-02-06T03:43:24.531Z,50.90
2023-02-06T03:44:24.520Z,44.10
2023-02-06T03:45:24.509Z,46.20
2023-02-06T03:46:24.536Z,44.20
2023-02-06T03:47:24.500Z,42.90
2023-02-06T03:48:24.492Z,44.00
2023-02-06T03:49:24.490Z,42.20
2023-02-06T03:50:24.483Z,41.40
2023-02-06T03:51:24.493Z,41.90
2023-02-06T03:52:24.459Z,46.00
2023-02-06T03:53:24.454Z,46.40
2023-02-06T03:54:24.454Z,42.90
2023-02-06T03:55:24.436Z,43.50
2023-02-06T03:56:24.449Z,43.50
2023-02-06T03:57:24.426Z,41.00
2023-02-06T03:58:24.813Z,41.90
2023-02-06T03:59:25.411Z,43.20
2023-02-06T04:00:24.402Z,45.50
2023-02-06T04:01:24.448Z,45.90
2023-02-06T04:02:24.447Z,40.20
2023-02-06T04:03:24.372Z,45.50
2023-02-06T04:04:24.362Z,49.30
2023-02-06T04:05:24.361Z,54.40
2023-02-06T04:06:24.375Z,53.30
2023-02-06T04:07:24.342Z,53.40
2023-02-06T04:08:24.343Z,45.20
2023-02-06T04:09:24.324Z,51.10
2023-02-06T04:10:26.226Z,45.80
2023-02-06T04:11:25.340Z,47.10
2023-02-06T04:12:24.307Z,46.50
2023-02-06T04:13:24.301Z,46.60
2023-02-06T04:14:24.286Z,50.40
2023-02-06T04:15:24.279Z,46.60
2023-02-06T04:16:24.330Z,43.30
2023-02-06T04:17:40.785Z,47.50
2023-02-06T04:18:26.254Z,51.10
2023-02-06T04:19:24.272Z,47.70
2023-02-06T04:20:24.247Z,43.30
2023-02-06T04:21:24.261Z,49.80
2023-02-06T04:22:24.230Z,49.80
2023-02-06T04:23:24.219Z,49.50
2023-02-06T04:24:24.212Z,50.90
2023-02-06T04:25:24.199Z,47.80
2023-02-06T04:26:24.221Z,40.40
2023-02-06T04:27:24.183Z,42.50
2023-02-06T04:28:25.176Z,46.40
2023-02-06T04:29:24.173Z,47.40
2023-02-06T04:30:24.179Z,41.40
2023-02-06T04:31:24.265Z,47.90
2023-02-06T04:32:24.144Z,47.40
2023-02-06T04:33:24.136Z,48.50
2023-02-06T04:34:24.129Z,48.80
2023-02-06T04:35:24.132Z,45.80
2023-02-06T04:36:24.143Z,48.80
2023-02-06T04:37:24.107Z,47.10
2023-02-06T04:38:24.096Z,52.70
2023-02-06T04:39:24.093Z,50.80
2023-02-06T04:40:24.098Z,50.20
2023-02-06T04:41:24.114Z,54.20
2023-02-06T04:42:24.073Z,56.00
2023-02-06T04:43:24.058Z,49.10
2023-02-06T04:44:24.068Z,46.70
2023-02-06T04:45:24.040Z,54.10
2023-02-06T04:46:24.043Z,47.10
2023-02-06T04:47:24.149Z,44.60
2023-02-06T04:48:24.020Z,50.20
2023-02-06T04:49:24.016Z,50.60
2023-02-06T04:50:24.002Z,60.30
2023-02-06T04:51:24.000Z,53.10
2023-02-06T04:52:24.015Z,50.60
2023-02-06T04:53:23.981Z,49.30
2023-02-06T04:54:23.987Z,48.80
2023-02-06T04:55:23.960Z,54.10
2023-02-06T04:56:23.959Z,51.10
2023-02-06T04:57:23.989Z,59.00
2023-02-06T04:58:23.939Z,56.20
2023-02-06T04:59:23.930Z,47.40
2023-02-06T05:00:23.928Z,56.70
2023-02-06T05:01:23.962Z,49.50
2023-02-06T05:02:24.016Z,51.70
2023-02-06T05:03:23.904Z,47.20
2023-02-06T05:04:23.889Z,50.30
2023-02-06T05:05:23.883Z,47.30
2023-02-06T05:06:23.881Z,47.90
2023-02-06T05:07:23.897Z,47.20
2023-02-06T05:08:23.854Z,48.50
2023-02-06T05:09:23.853Z,51.90
2023-02-06T05:10:23.885Z,48.00
2023-02-06T05:11:23.836Z,50.50
2023-02-06T05:12:23.853Z,53.90
2023-02-06T05:13:23.805Z,54.80
2023-02-06T05:14:23.800Z,49.40
2023-02-06T05:15:23.801Z,48.20
2023-02-06T05:16:23.783Z,44.70
2023-02-06T05:17:23.802Z,47.30
2023-02-06T05:18:23.789Z,49.30
2023-02-06T05:19:23.765Z,51.70
2023-02-06T05:20:23.757Z,47.90
2023-02-06T05:21:23.749Z,52.30
2023-02-06T05:22:23.762Z,52.50
2023-02-06T05:23:23.726Z,52.20
2023-02-06T05:24:23.718Z,51.90
2023-02-06T05:25:23.715Z,53.50
2023-02-06T05:26:23.707Z,52.00
2023-02-06T05:27:23.738Z,56.70
2023-02-06T05:28:23.697Z,56.60
2023-02-06T05:29:23.681Z,59.10
2023-02-06T05:30:23.668Z,58.40
2023-02-06T05:31:23.840Z,53.20
2023-02-06T05:32:23.686Z,54.20
2023-02-06T05:33:23.654Z,56.10
2023-02-06T05:34:23.642Z,55.90
2023-02-06T05:35:23.636Z,57.10
2023-02-06T05:36:23.630Z,54.20
2023-02-06T05:37:23.637Z,51.10
2023-02-06T05:38:24.610Z,58.80
2023-02-06T05:39:23.602Z,50.50
2023-02-06T05:40:23.607Z,52.10
2023-02-06T05:41:23.614Z,53.10
2023-02-06T05:42:23.610Z,55.40
2023-02-06T05:43:23.575Z,60.00
2023-02-06T05:44:23.574Z,53.60
2023-02-06T05:45:23.565Z,52.80
2023-02-06T05:46:23.590Z,54.70
2023-02-06T05:47:23.579Z,47.20
2023-02-06T05:48:23.541Z,62.80
2023-02-06T05:49:23.534Z,57.60
2023-02-06T05:50:23.521Z,58.30
2023-02-06T05:51:23.516Z,72.10
2023-02-06T05:52:23.534Z,59.50
2023-02-06T05:53:23.507Z,61.00
2023-02-06T05:54:23.497Z,62.10
2023-02-06T05:55:23.490Z,63.80
2023-02-06T05:56:23.484Z,63.60
2023-02-06T05:57:23.495Z,69.90
2023-02-06T05:58:23.467Z,68.00
2023-02-06T05:59:23.453Z,51.10
2023-02-06T06:00:23.452Z,58.30
2023-02-06T06:01:23.448Z,54.90
2023-02-06T06:02:23.471Z,50.40
2023-02-06T06:03:23.456Z,56.00
2023-02-06T06:04:23.444Z,61.10
2023-02-06T06:05:23.407Z,56.50
2023-02-06T06:06:23.405Z,65.20
2023-02-06T06:07:23.403Z,58.80
2023-02-06T06:08:23.412Z,66.40
2023-02-06T06:09:23.382Z,58.10
2023-02-06T06:10:23.375Z,59.70
2023-02-06T06:11:23.366Z,47.00
2023-02-06T06:12:23.364Z,49.00
2023-02-06T06:13:23.372Z,53.00
2023-02-06T06:14:23.352Z,50.40
2023-02-06T06:15:23.333Z,52.70
2023-02-06T06:16:23.410Z,51.40
2023-02-06T06:17:23.318Z,56.00
2023-02-06T06:18:23.340Z,60.40
2023-02-06T06:19:23.298Z,56.00
2023-02-06T06:20:23.304Z,57.10
2023-02-06T06:21:23.283Z,64.80
2023-02-06T06:22:23.290Z,59.20
2023-02-06T06:23:23.333Z,53.70
2023-02-06T06:24:23.265Z,53.40
2023-02-06T06:25:23.257Z,49.10
2023-02-06T06:26:23.249Z,50.60
2023-02-06T06:27:23.246Z,56.60
2023-02-06T06:28:23.256Z,56.20
2023-02-06T06:29:23.232Z,53.20
2023-02-06T06:30:23.216Z,54.50
2023-02-06T06:31:23.321Z,63.30
2023-02-06T06:32:23.195Z,59.30
2023-02-06T06:33:23.218Z,53.70
2023-02-06T06:34:23.191Z,63.30
2023-02-06T06:35:23.181Z,61.80
2023-02-06T06:36:23.175Z,56.80
2023-02-06T06:37:23.146Z,53.80
2023-02-06T06:38:24.184Z,46.00
2023-02-06T06:39:23.127Z,49.10
2023-02-06T06:40:24.129Z,46.40
2023-02-06T06:41:23.140Z,47.10
2023-02-06T06:42:23.123Z,54.70
2023-02-06T06:43:23.150Z,52.40
2023-02-06T06:44:23.093Z,56.90
2023-02-06T06:45:24.198Z,57.00
2023-02-06T06:46:23.082Z,61.20
2023-02-06T06:47:23.081Z,56.90
2023-02-06T06:48:23.102Z,63.70
2023-02-06T06:49:23.079Z,61.10
2023-02-06T06:50:23.065Z,51.40
2023-02-06T06:51:23.047Z,48.30
2023-02-06T06:52:25.605Z,59.40
2023-02-06T06:53:24.065Z,70.00
2023-02-06T06:54:23.023Z,68.70
2023-02-06T06:55:23.035Z,56.60
2023-02-06T06:56:23.008Z,66.50
2023-02-06T06:57:23.007Z,54.80
2023-02-06T06:58:23.015Z,62.10
2023-02-06T06:59:22.984Z,50.30
2023-02-06T07:00:22.981Z,58.20
2023-02-06T07:01:23.013Z,59.80
2023-02-06T07:02:22.974Z,62.40
2023-02-06T07:03:23.042Z,61.80
2023-02-06T07:04:23.022Z,54.90
2023-02-06T07:05:22.941Z,61.10
2023-02-06T07:06:22.933Z,62.40
2023-02-06T07:07:22.947Z,61.90
2023-02-06T07:08:22.960Z,69.40
2023-02-06T07:09:22.916Z,62.80
2023-02-06T07:10:22.908Z,61.40
2023-02-06T07:11:22.896Z,54.90
2023-02-06T07:12:22.881Z,57.60
2023-02-06T07:13:22.911Z,55.30
2023-02-06T07:14:22.873Z,62.50
2023-02-06T07:15:22.864Z,68.70
2023-02-06T07:16:22.898Z,59.40
2023-02-06T07:17:22.863Z,53.60
2023-02-06T07:18:22.873Z,55.50
2023-02-06T07:19:22.866Z,66.00
2023-02-06T07:20:22.823Z,55.30
2023-02-06T07:21:22.816Z,55.30
2023-02-06T07:22:22.807Z,56.10
2023-02-06T07:23:22.832Z,58.10
2023-02-06T07:24:22.795Z,52.60
2023-02-06T07:25:22.774Z,53.50
2023-02-06T07:26:23.784Z,48.40
2023-02-06T07:27:22.884Z,57.60
2023-02-06T07:28:22.795Z,62.20
2023-02-06T07:29:22.753Z,64.10
2023-02-06T07:30:22.778Z,66.30
2023-02-06T07:31:22.767Z,47.50
2023-02-06T07:32:22.733Z,58.80
2023-02-06T07:33:22.728Z,60.10
2023-02-06T07:34:22.737Z,70.90
2023-02-06T07:35:22.701Z,66.60
2023-02-06T07:36:22.697Z,53.40
2023-02-06T07:37:22.694Z,59.50
2023-02-06T07:38:22.711Z,48.20
2023-02-06T07:39:22.697Z,53.60
2023-02-06T07:40:22.665Z,55.20
2023-02-06T07:41:22.661Z,57.10
2023-02-06T07:42:22.665Z,48.50
2023-02-06T07:43:22.651Z,51.10
2023-02-06T07:44:22.659Z,48.40
2023-02-06T07:45:22.641Z,49.40
2023-02-06T07:46:22.642Z,40.70
2023-02-06T07:47:22.622Z,39.90
2023-02-06T07:48:22.607Z,39.00
2023-02-06T07:49:22.621Z,40.10
2023-02-06T07:50:22.589Z,39.40
2023-02-06T07:51:22.574Z,38.20
2023-02-06T07:52:22.564Z,34.20
2023-02-06T07:53:22.574Z,31.20
2023-02-06T07:54:22.581Z,37.40
2023-02-06T07:55:22.550Z,36.90
2023-02-06T07:56:22.560Z,30.80
2023-02-06T07:57:22.528Z,18.30
2023-02-06T07:58:22.524Z,18.00
2023-02-06T07:59:22.549Z,18.90
2023-02-06T08:00:22.512Z,17.00
2023-02-06T08:01:22.558Z,19.80
2023-02-06T08:02:22.496Z,15.10
2023-02-06T08:03:22.492Z,16.10
2023-02-06T08:04:22.598Z,17.50
2023-02-06T08:05:22.468Z,18.00
2023-02-06T08:06:24.262Z,17.00
2023-02-06T08:07:23.464Z,16.40
2023-02-06T08:08:22.450Z,16.10
2023-02-06T08:09:22.467Z,14.30
2023-02-06T08:10:22.438Z,16.80
2023-02-06T08:11:22.427Z,17.40
2023-02-06T08:12:22.422Z,14.70
2023-02-06T08:13:22.416Z,14.40
2023-02-06T08:14:22.441Z,14.10
2023-02-06T08:15:22.404Z,16.50
2023-02-06T08:16:22.414Z,14.90
2023-02-06T08:17:22.400Z,13.50
2023-02-06T08:18:22.373Z,14.20
2023-02-06T08:19:22.390Z,12.10
2023-02-06T08:20:22.364Z,10.40
2023-02-06T08:21:22.361Z,13.10
2023-02-06T08:22:22.340Z,14.10
2023-02-06T08:23:22.405Z,12.40
2023-02-06T08:24:22.352Z,13.90
2023-02-06T08:25:22.326Z,12.00
2023-02-06T08:26:22.311Z,12.70
2023-02-06T08:27:22.304Z,10.10
2023-02-06T08:28:22.350Z,10.90
2023-02-06T08:29:22.310Z,10.70
2023-02-06T08:30:22.306Z,10.30
2023-02-06T08:31:22.343Z,11.80
2023-02-06T08:32:22.265Z,7.90
2023-02-06T08:33:22.251Z,12.10
2023-02-06T08:34:22.272Z,10.00
2023-02-06T08:35:22.239Z,10.40
2023-02-06T08:36:22.231Z,12.00
2023-02-06T08:37:22.237Z,9.40
2023-02-06T08:38:22.220Z,9.80
2023-02-06T08:39:22.231Z,9.00
2023-02-06T08:40:22.197Z,11.90
2023-02-06T08:41:22.215Z,10.50
2023-02-06T08:42:22.180Z,10.20
2023-02-06T08:43:22.177Z,9.80
2023-02-06T08:44:22.195Z,10.10
2023-02-06T08:45:22.148Z,9.80
2023-02-06T08:46:22.190Z,12.60
2023-02-06T08:47:22.169Z,10.10
2023-02-06T08:48:22.130Z,7.70
2023-02-06T08:49:22.147Z,13.70
2023-02-06T08:50:22.120Z,12.60
2023-02-06T08:51:22.104Z,9.40
2023-02-06T08:52:22.097Z,9.70
2023-02-06T08:53:22.093Z,9.70
2023-02-06T08:54:22.106Z,10.00
2023-02-06T08:55:25.394Z,10.40
2023-02-06T08:56:22.068Z,12.00
2023-02-06T08:57:22.056Z,9.50
2023-02-06T08:58:22.052Z,12.40
2023-02-06T08:59:22.065Z,13.00
2023-02-06T09:00:22.048Z,12.60
2023-02-06T09:01:22.048Z,12.50
2023-02-06T09:02:22.074Z,12.60
2023-02-06T09:03:22.048Z,10.10
2023-02-06T09:04:22.035Z,11.00
2023-02-06T09:05:21.996Z,9.10
2023-02-06T09:06:21.984Z,10.90
2023-02-06T09:07:21.983Z,11.70
2023-02-06T09:08:21.969Z,11.50
2023-02-06T09:09:21.960Z,14.60
2023-02-06T09:10:27.416Z,15.20
2023-02-06T09:11:23.940Z,11.50
2023-02-06T09:12:22.013Z,12.30
2023-02-06T09:13:21.930Z,16.60
2023-02-06T09:14:21.924Z,14.60
2023-02-06T09:15:21.951Z,14.70
2023-02-06T09:16:21.978Z,14.10
2023-02-06T09:17:21.930Z,14.20
2023-02-06T09:18:21.910Z,17.30
2023-02-06T09:19:21.913Z,11.60
2023-02-06T09:20:21.952Z,11.10
2023-02-06T09:21:21.864Z,11.90
2023-02-06T09:22:21.888Z,12.90
2023-02-06T09:23:21.848Z,11.20
2023-02-06T09:24:21.842Z,11.30
2023-02-06T09:25:21.884Z,12.50
2023-02-06T09:26:21.823Z,10.80
2023-02-06T09:27:21.817Z,11.00
2023-02-06T09:28:21.858Z,9.80
2023-02-06T09:29:21.800Z,11.10
2023-02-06T09:30:21.962Z,11.70
2023-02-06T09:31:21.821Z,9.40
2023-02-06T09:32:21.782Z,8.20
2023-02-06T09:33:21.767Z,8.60
2023-02-06T09:34:21.760Z,8.50
2023-02-06T09:35:21.772Z,10.40
2023-02-06T09:36:21.744Z,7.80
2023-02-06T09:37:21.740Z,9.70
2023-02-06T09:38:21.727Z,8.10
2023-02-06T09:39:21.722Z,9.80
2023-02-06T09:40:21.742Z,10.70
2023-02-06T09:41:21.702Z,8.60
2023-02-06T09:42:21.699Z,7.60
2023-02-06T09:43:21.695Z,8.20
2023-02-06T09:44:21.701Z,9.50
2023-02-06T09:45:21.699Z,9.00
2023-02-06T09:46:21.686Z,8.90
2023-02-06T09:47:21.680Z,9.30
2023-02-06T09:48:21.645Z,8.60
2023-02-06T09:49:21.642Z,9.70
2023-02-06T09:50:21.654Z,8.50
2023-02-06T09:51:21.658Z,7.70
2023-02-06T09:52:21.625Z,8.50
2023-02-06T09:53:21.606Z,7.20
2023-02-06T09:54:21.602Z,9.70
2023-02-06T09:55:21.637Z,9.10
2023-02-06T09:56:21.589Z,9.30
2023-02-06T09:57:21.579Z,7.80
2023-02-06T09:58:21.575Z,9.50
2023-02-06T09:59:21.575Z,7.10
2023-02-06T10:00:21.582Z,9.80
2023-02-06T10:01:21.563Z,10.50
2023-02-06T10:02:21.545Z,7.00
2023-02-06T10:03:21.535Z,8.90
2023-02-06T10:04:21.569Z,8.30
2023-02-06T10:05:21.517Z,6.90
2023-02-06T10:06:21.544Z,7.90
2023-02-06T10:07:21.528Z,8.40
2023-02-06T10:08:21.492Z,10.50
2023-02-06T10:09:21.492Z,10.40
2023-02-06T10:10:21.474Z,10.70
2023-02-06T10:11:21.494Z,8.30
2023-02-06T10:12:21.504Z,10.30
2023-02-06T10:13:21.458Z,10.20
2023-02-06T10:14:21.454Z,11.90
2023-02-06T10:15:21.437Z,8.00
2023-02-06T10:16:21.517Z,9.30
2023-02-06T10:17:21.422Z,8.80
2023-02-06T10:18:21.452Z,8.30
2023-02-06T10:19:21.442Z,8.10
2023-02-06T10:20:21.408Z,9.10
2023-02-06T10:21:21.414Z,10.70
2023-02-06T10:22:21.384Z,8.10
2023-02-06T10:23:21.386Z,9.00
2023-02-06T10:24:21.369Z,9.20
2023-02-06T10:25:21.362Z,10.30
2023-02-06T10:26:21.380Z,8.60
2023-02-06T10:27:21.350Z,12.60
2023-02-06T10:28:21.431Z,10.50
2023-02-06T10:29:21.332Z,10.20
2023-02-06T10:30:21.325Z,9.00
2023-02-06T10:31:22.434Z,9.50
2023-02-06T10:32:21.310Z,8.40
2023-02-06T10:33:25.602Z,8.40
2023-02-06T10:34:22.294Z,8.20
2023-02-06T10:35:21.284Z,8.60
2023-02-06T10:36:21.316Z,9.20
2023-02-06T10:37:21.269Z,9.80
2023-02-06T10:38:21.273Z,10.10
2023-02-06T10:39:21.254Z,13.00
2023-02-06T10:40:21.249Z,9.40
2023-02-06T10:41:21.272Z,10.70
2023-02-06T10:42:22.769Z,9.50
2023-02-06T10:43:22.247Z,8.60
2023-02-06T10:44:21.214Z,10.70
2023-02-06T10:45:21.213Z,10.70
2023-02-06T10:46:21.253Z,8.50
2023-02-06T10:47:21.195Z,13.20
2023-02-06T10:48:21.186Z,12.10
2023-02-06T10:49:21.182Z,11.70
2023-02-06T10:50:21.177Z,11.20
2023-02-06T10:51:21.197Z,7.50
2023-02-06T10:52:21.169Z,12.20
2023-02-06T10:53:21.152Z,10.30
2023-02-06T10:54:21.160Z,11.10
2023-02-06T10:55:21.144Z,11.40
2023-02-06T10:56:21.130Z,10.60
2023-02-06T10:57:21.147Z,10.90
2023-02-06T10:58:21.109Z,8.60
2023-02-06T10:59:21.107Z,8.80
2023-02-06T11:00:21.097Z,8.70
2023-02-06T11:01:26.362Z,11.40
2023-02-06T11:02:23.175Z,12.20
2023-02-06T11:03:21.073Z,9.70
2023-02-06T11:04:21.059Z,7.50
2023-02-06T11:05:21.053Z,9.30
2023-02-06T11:06:21.069Z,10.90
2023-02-06T11:07:21.065Z,9.20
2023-02-06T11:08:21.037Z,7.10
2023-02-06T11:09:21.024Z,9.00
2023-02-06T11:10:21.020Z,11.10
2023-02-06T11:11:21.009Z,10.00
2023-02-06T11:12:21.034Z,8.60
2023-02-06T11:13:20.997Z,11.20
2023-02-06T11:14:20.996Z,8.60
2023-02-06T11:15:20.979Z,9.60
2023-02-06T11:16:21.050Z,8.20
2023-02-06T11:17:21.017Z,11.50
2023-02-06T11:18:20.958Z,10.90
2023-02-06T11:19:20.948Z,9.10
2023-02-06T11:20:20.941Z,10.20
2023-02-06T11:21:20.931Z,10.30
2023-02-06T11:22:20.995Z,10.50
2023-02-06T11:23:20.918Z,8.30
2023-02-06T11:24:20.912Z,10.50
2023-02-06T11:25:20.900Z,8.50
2023-02-06T11:26:20.968Z,9.50
2023-02-06T11:27:20.918Z,10.20
2023-02-06T11:28:20.953Z,9.50
2023-02-06T11:29:20.874Z,9.50
2023-02-06T11:30:20.859Z,8.60
2023-02-06T11:31:20.898Z,7.50
2023-02-06T11:32:20.872Z,8.70
2023-02-06T11:33:20.845Z,7.00
2023-02-06T11:34:20.837Z,9.90
2023-02-06T11:35:20.829Z,7.50
2023-02-06T11:36:20.810Z,7.90
2023-02-06T11:37:21.049Z,10.30
2023-02-06T11:38:20.800Z,7.80
2023-02-06T11:39:20.799Z,5.80
2023-02-06T11:40:20.786Z,8.90
2023-02-06T11:41:20.781Z,8.30
2023-02-06T11:42:20.806Z,7.60
2023-02-06T11:43:20.765Z,7.10
2023-02-06T11:44:20.758Z,5.70
2023-02-06T11:45:20.749Z,10.40
2023-02-06T11:46:20.748Z,10.30
2023-02-06T11:47:20.877Z,8.90
2023-02-06T11:48:20.735Z,10.90
2023-02-06T11:49:20.721Z,8.60
2023-02-06T11:50:20.708Z,7.10
2023-02-06T11:51:20.713Z,10.20
2023-02-06T11:52:20.726Z,9.80
2023-02-06T11:53:20.692Z,8.00
2023-02-06T11:54:20.692Z,9.80
2023-02-06T11:55:20.678Z,8.30
2023-02-06T11:56:20.674Z,8.50
2023-02-06T11:57:20.649Z,8.60
2023-02-06T11:58:21.681Z,9.10
2023-02-06T11:59:20.861Z,11.70
2023-02-06T12:00:20.647Z,4.50
2023-02-06T12:01:20.632Z,9.00
2023-02-06T12:02:20.631Z,8.70
2023-02-06T12:03:20.693Z,8.40
2023-02-06T12:04:20.600Z,8.40
2023-02-06T12:05:20.597Z,9.20
2023-02-06T12:06:20.586Z,5.10
2023-02-06T12:07:20.582Z,5.70
2023-02-06T12:08:20.596Z,5.70
2023-02-06T12:09:20.567Z,8.10
2023-02-06T12:10:20.558Z,5.60
2023-02-06T12:11:20.557Z,6.60
2023-02-06T12:12:20.569Z,7.20
2023-02-06T12:13:20.590Z,6.90
2023-02-06T12:14:20.536Z,8.20
2023-02-06T12:15:45.559Z,8.30
2023-02-06T12:16:22.551Z,9.20
2023-02-06T12:17:20.518Z,7.00
2023-02-06T12:18:20.529Z,8.00
2023-02-06T12:19:20.494Z,8.80
2023-02-06T12:20:20.481Z,10.90
2023-02-06T12:21:20.476Z,5.70
2023-02-06T12:22:20.507Z,7.70
2023-02-06T12:23:20.485Z,6.10
2023-02-06T12:24:20.452Z,7.00
2023-02-06T12:25:20.443Z,8.90
2023-02-06T12:26:20.436Z,5.90
2023-02-06T12:27:20.429Z,7.30
2023-02-06T12:28:20.481Z,8.20
2023-02-06T12:29:20.410Z,8.00
2023-02-06T12:30:21.409Z,9.80
2023-02-06T12:31:20.605Z,7.10
2023-02-06T12:32:20.399Z,6.00
2023-02-06T12:33:20.415Z,8.40
2023-02-06T12:34:20.369Z,7.80
2023-02-06T12:35:21.366Z,7.70
2023-02-06T12:36:20.355Z,6.40
2023-02-06T12:37:20.349Z,8.30
2023-02-06T12:38:20.366Z,7.20
2023-02-06T12:39:20.339Z,8.50
2023-02-06T12:40:20.328Z,12.20
2023-02-06T12:41:20.318Z,6.70
2023-02-06T12:42:20.314Z,7.80
2023-02-06T12:43:20.331Z,9.90
2023-02-06T12:44:20.297Z,8.00
2023-02-06T12:45:20.296Z,7.80
2023-02-06T12:46:20.356Z,6.50
2023-02-06T12:47:20.276Z,8.00
2023-02-06T12:48:20.287Z,7.70
2023-02-06T12:49:20.253Z,5.90
2023-02-06T12:50:20.250Z,7.80
2023-02-06T12:51:20.242Z,6.50
2023-02-06T12:52:20.231Z,7.30
2023-02-06T12:53:20.252Z,6.40
2023-02-06T12:54:20.219Z,9.20
2023-02-06T12:55:20.207Z,8.90
2023-02-06T12:56:20.201Z,5.60
2023-02-06T12:57:20.202Z,6.50
2023-02-06T12:58:20.214Z,6.50